Time;durP1;ratioP1;P1;durP2;ratioP2;P2;SDS_P1;SDS_P2;PMS_P1;PMS_P2;Temp;Humidity;BMP_temperature;BMP_pressure;BME280_temperature;BME280_humidity;BME280_pressure;Samples;Min_cycle;Max_cycle;Signal;HPM_P1;HPM_P2
2022/05/05 00:01:34;;;;;;;14.23;9.90;;;6.40;99.90;;;;;;4922518;28;89647;-35
2022/05/05 00:04:00;;;;;;;21.55;10.15;;;6.50;99.90;;;;;;4922316;28;89768;-35
2022/05/05 00:06:27;;;;;;;15.85;9.32;;;6.40;99.90;;;;;;4921382;28;90871;-34
2022/05/05 00:08:53;;;;;;;16.13;10.05;;;6.40;99.90;;;;;;4921443;28;89202;-36
2022/05/05 00:16:48;;;;;;;13.95;10.35;;;6.20;99.90;;;;;;4921417;28;90314;-38
2022/05/05 00:19:13;;;;;;;14.55;10.43;;;6.20;99.90;;;;;;4921393;28;89747;-37
2022/05/05 00:21:39;;;;;;;12.48;9.82;;;6.10;99.90;;;;;;4920724;28;89958;-36
2022/05/05 00:24:08;;;;;;;18.25;10.20;;;6.10;99.90;;;;;;4922135;28;89294;-33
2022/05/05 00:26:34;;;;;;;11.45;9.20;;;6.00;99.90;;;;;;4921408;28;90201;-33
2022/05/05 00:29:00;;;;;;;13.40;9.75;;;6.00;99.90;;;;;;4921261;28;90704;-34
2022/05/05 00:31:25;;;;;;;12.85;9.98;;;6.10;99.90;;;;;;4920803;28;90475;-37
2022/05/05 00:33:51;;;;;;;21.05;11.77;;;6.00;99.90;;;;;;4920765;28;88205;-33
2022/05/05 00:36:16;;;;;;;14.25;11.43;;;6.00;99.90;;;;;;4920652;28;90705;-36
2022/05/05 00:38:42;;;;;;;14.02;10.65;;;6.00;99.90;;;;;;4960685;23;89472;-36
2022/05/05 00:41:08;;;;;;;12.40;9.50;;;6.00;99.90;;;;;;4959695;28;89461;-38
2022/05/05 00:43:35;;;;;;;14.52;9.57;;;6.00;99.90;;;;;;4960812;28;88386;-37
2022/05/05 00:46:02;;;;;;;16.02;10.15;;;6.00;99.90;;;;;;4958708;28;90217;-35
2022/05/05 00:48:27;;;;;;;15.18;10.85;;;6.00;99.90;;;;;;4959307;28;89639;-37
2022/05/05 00:50:55;;;;;;;15.32;10.27;;;6.00;99.90;;;;;;4959737;28;90255;-37
2022/05/05 00:53:21;;;;;;;12.27;10.48;;;5.90;99.90;;;;;;4960030;28;89722;-35
2022/05/05 00:55:48;;;;;;;12.98;9.82;;;5.90;99.90;;;;;;4959189;28;90061;-38
2022/05/05 00:58:14;;;;;;;12.98;10.02;;;5.90;99.90;;;;;;4952400;28;89831;-35
2022/05/05 01:00:40;;;;;;;18.17;11.70;;;5.90;99.90;;;;;;4939835;28;89701;-34
2022/05/05 01:03:11;;;;;;;11.60;10.30;;;5.90;99.90;;;;;;4940302;28;89670;-38
2022/05/05 01:05:39;;;;;;;20.15;10.88;;;6.00;99.90;;;;;;4939762;28;90291;-33
2022/05/05 01:08:05;;;;;;;15.93;11.07;;;6.00;99.90;;;;;;4939873;28;90577;-36
2022/05/05 01:10:31;;;;;;;15.30;11.35;;;6.10;99.90;;;;;;4940184;28;89833;-33
2022/05/05 01:12:56;;;;;;;17.83;12.18;;;6.10;99.90;;;;;;4939678;28;89813;-32
2022/05/05 01:15:22;;;;;;;15.05;11.48;;;6.10;99.90;;;;;;4940412;28;89941;-35
2022/05/05 01:17:48;;;;;;;17.77;10.82;;;6.20;99.90;;;;;;4939188;28;90518;-37
2022/05/05 01:20:15;;;;;;;14.02;10.82;;;6.10;99.90;;;;;;4939055;28;90645;-34
2022/05/05 01:22:41;;;;;;;14.40;11.45;;;6.10;99.90;;;;;;4939997;28;88424;-35
2022/05/05 01:30:35;;;;;;;15.45;13.05;;;6.10;99.90;;;;;;4939444;28;90975;-32
2022/05/05 01:33:00;;;;;;;21.02;12.85;;;6.10;99.90;;;;;;4940191;28;88343;-34
2022/05/05 01:35:26;;;;;;;24.13;12.05;;;6.10;99.90;;;;;;4939859;28;91655;-34
2022/05/05 01:37:52;;;;;;;14.95;11.57;;;6.10;99.90;;;;;;4939074;28;89463;-35
2022/05/05 01:40:17;;;;;;;16.13;12.32;;;6.10;99.90;;;;;;4939526;28;89585;-35
2022/05/05 01:42:43;;;;;;;19.15;10.63;;;6.10;99.90;;;;;;4938172;28;89292;-34
2022/05/05 01:45:09;;;;;;;16.15;12.52;;;6.10;99.90;;;;;;4939479;28;94175;-35
2022/05/05 01:47:37;;;;;;;16.85;12.60;;;6.10;99.90;;;;;;4939538;28;89672;-35
2022/05/05 01:50:03;;;;;;;15.52;12.10;;;6.10;99.90;;;;;;4939224;28;89687;-32
2022/05/05 01:52:28;;;;;;;22.90;13.95;;;6.10;99.90;;;;;;4939582;28;90015;-33
2022/05/05 01:54:54;;;;;;;15.80;13.38;;;6.00;99.90;;;;;;4939309;28;89979;-33
2022/05/05 01:57:20;;;;;;;17.02;13.63;;;6.00;99.90;;;;;;4938858;28;89610;-34
2022/05/05 01:59:45;;;;;;;16.50;13.07;;;5.90;99.90;;;;;;4939393;28;89082;-32
2022/05/05 02:02:11;;;;;;;18.13;12.70;;;5.90;99.90;;;;;;4939132;28;88907;-32
2022/05/05 02:04:36;;;;;;;22.30;13.30;;;5.90;99.90;;;;;;4938694;28;90563;-34
2022/05/05 02:07:03;;;;;;;22.08;14.13;;;5.90;99.90;;;;;;4938996;28;91073;-35
2022/05/05 02:09:30;;;;;;;14.55;12.38;;;5.90;99.90;;;;;;4939094;28;90064;-33
2022/05/05 02:11:56;;;;;;;16.55;14.73;;;5.80;99.90;;;;;;4939451;28;89509;-36
2022/05/05 02:14:23;;;;;;;23.52;15.13;;;5.80;99.90;;;;;;4938631;28;90173;-35
2022/05/05 02:16:49;;;;;;;20.70;14.98;;;5.70;99.90;;;;;;4938483;28;89679;-38
2022/05/05 02:19:15;;;;;;;29.33;16.00;;;5.70;99.90;;;;;;4939713;28;89638;-37
2022/05/05 02:21:40;;;;;;;24.38;15.38;;;5.70;99.90;;;;;;4938808;28;90010;-35
2022/05/05 02:24:06;;;;;;;22.48;13.18;;;5.70;99.90;;;;;;4939693;28;90386;-35
2022/05/05 02:26:32;;;;;;;20.95;16.05;;;5.70;99.90;;;;;;4938545;28;92004;-36
2022/05/05 02:28:57;;;;;;;22.80;16.17;;;5.70;99.90;;;;;;4938217;28;93281;-36
2022/05/05 02:31:23;;;;;;;17.75;14.02;;;5.70;99.90;;;;;;4939035;28;89802;-32
2022/05/05 02:33:48;;;;;;;20.00;14.95;;;5.80;99.90;;;;;;4938528;28;90151;-34
2022/05/05 02:38:58;;;;;;;22.42;16.73;;;5.70;99.90;;;;;;4937965;28;89496;-35
2022/05/05 02:41:24;;;;;;;18.40;14.27;;;5.70;99.90;;;;;;4939118;28;88802;-35
2022/05/05 02:43:50;;;;;;;20.67;15.85;;;5.60;99.90;;;;;;4938753;28;91600;-35
2022/05/05 02:46:15;;;;;;;20.83;14.90;;;5.60;99.90;;;;;;4938842;28;89749;-32
2022/05/05 02:48:41;;;;;;;25.92;17.35;;;5.60;99.90;;;;;;4938854;28;88656;-33
2022/05/05 02:51:07;;;;;;;20.63;15.63;;;5.60;99.90;;;;;;4938750;28;88216;-33
2022/05/05 02:56:17;;;;;;;18.60;15.30;;;5.40;99.90;;;;;;4941088;28;90992;-38
2022/05/05 02:58:43;;;;;;;24.70;15.80;;;5.30;99.90;;;;;;4942117;28;90409;-36
2022/05/05 03:01:08;;;;;;;17.23;14.25;;;5.20;99.90;;;;;;4941813;28;89405;-34
2022/05/05 03:03:35;;;;;;;24.85;16.38;;;5.20;99.90;;;;;;4941036;28;89311;-37
2022/05/05 03:06:00;;;;;;;27.23;17.02;;;5.20;99.90;;;;;;4941583;28;89384;-32
2022/05/05 03:08:26;;;;;;;20.58;15.80;;;5.20;99.90;;;;;;4941428;28;89796;-34
2022/05/05 03:10:52;;;;;;;20.10;15.75;;;5.20;99.90;;;;;;4942282;28;89029;-35
2022/05/05 03:13:17;;;;;;;21.85;16.60;;;5.10;99.90;;;;;;4941867;28;90307;-34
2022/05/05 03:15:44;;;;;;;19.52;15.27;;;5.10;99.90;;;;;;4941106;28;89277;-38
2022/05/05 03:18:10;;;;;;;22.50;13.98;;;5.10;99.90;;;;;;4942389;28;88471;-34
2022/05/05 03:20:35;;;;;;;21.67;16.60;;;5.10;99.90;;;;;;4941197;28;89876;-34
2022/05/05 03:23:02;;;;;;;19.65;14.98;;;5.10;99.90;;;;;;4942078;28;90190;-32
2022/05/05 03:25:27;;;;;;;19.05;14.82;;;5.00;99.90;;;;;;4941298;28;90171;-33
2022/05/05 03:27:53;;;;;;;20.00;17.08;;;4.90;99.90;;;;;;4941241;28;89124;-34
2022/05/05 03:30:18;;;;;;;19.50;16.45;;;4.90;99.90;;;;;;4942512;28;89559;-35
2022/05/05 03:32:44;;;;;;;20.23;15.60;;;4.90;99.90;;;;;;4940983;28;90491;-35
2022/05/05 03:35:10;;;;;;;17.92;16.02;;;5.00;99.90;;;;;;4942043;28;89531;-34
2022/05/05 03:37:35;;;;;;;19.13;15.00;;;5.00;99.90;;;;;;4940796;28;89922;-35
2022/05/05 03:40:01;;;;;;;17.83;14.13;;;5.00;99.90;;;;;;4940759;28;89227;-33
2022/05/05 03:42:27;;;;;;;22.73;15.13;;;5.00;99.90;;;;;;4941440;28;91332;-33
2022/05/05 03:44:52;;;;;;;20.48;15.10;;;4.90;99.90;;;;;;4940610;28;90635;-33
2022/05/05 03:47:19;;;;;;;20.05;16.13;;;4.90;99.90;;;;;;4941609;28;89387;-34
2022/05/05 03:49:44;;;;;;;21.95;15.98;;;4.90;99.90;;;;;;4940814;28;89088;-35
2022/05/05 03:52:10;;;;;;;22.73;16.02;;;4.90;99.90;;;;;;4941139;28;90105;-38
2022/05/05 03:54:36;;;;;;;20.30;15.25;;;4.80;99.90;;;;;;4939484;28;90480;-36
2022/05/05 03:57:01;;;;;;;18.92;16.05;;;4.90;99.90;;;;;;4940450;28;89384;-34
2022/05/05 03:59:27;;;;;;;21.08;16.48;;;4.90;99.90;;;;;;4941637;28;89002;-34
2022/05/05 04:01:52;;;;;;;24.75;17.08;;;4.90;99.90;;;;;;4940543;28;88926;-34
2022/05/05 04:04:19;;;;;;;23.02;17.00;;;4.90;99.90;;;;;;4941021;28;89951;-36
2022/05/05 04:06:45;;;;;;;26.75;18.73;;;4.90;99.90;;;;;;4940407;28;89970;-34
2022/05/05 04:09:11;;;;;;;20.30;15.73;;;4.90;99.90;;;;;;4940783;28;89758;-34
2022/05/05 04:11:37;;;;;;;23.63;17.35;;;4.90;99.90;;;;;;4940886;28;90400;-34
2022/05/05 04:14:04;;;;;;;19.40;16.83;;;4.80;99.90;;;;;;4940201;28;89735;-36
2022/05/05 04:16:33;;;;;;;21.02;16.63;;;4.80;99.90;;;;;;4941322;28;90170;-35
2022/05/05 04:19:01;;;;;;;17.67;15.77;;;4.90;99.90;;;;;;4940570;28;88996;-36
2022/05/05 04:21:27;;;;;;;24.43;17.13;;;4.90;99.90;;;;;;4941427;28;89739;-33
2022/05/05 04:23:53;;;;;;;21.75;17.52;;;5.00;99.90;;;;;;4940322;28;89828;-37
2022/05/05 04:26:19;;;;;;;22.05;15.95;;;5.00;99.90;;;;;;4940617;28;89373;-34
2022/05/05 04:28:47;;;;;;;22.20;17.70;;;5.00;99.90;;;;;;4940903;28;90203;-34
2022/05/05 04:31:14;;;;;;;24.83;18.92;;;5.10;99.90;;;;;;4940815;28;90034;-34
2022/05/05 04:33:40;;;;;;;24.85;17.85;;;5.20;99.90;;;;;;4939447;28;90552;-36
2022/05/05 04:36:07;;;;;;;25.02;18.70;;;5.30;99.90;;;;;;4940506;28;90474;-35
2022/05/05 04:38:33;;;;;;;22.85;16.80;;;5.40;99.90;;;;;;4940806;28;88409;-34
2022/05/05 04:40:59;;;;;;;27.52;19.70;;;5.60;99.90;;;;;;4940047;28;89700;-35
2022/05/05 04:43:25;;;;;;;31.27;20.98;;;5.70;99.90;;;;;;4940579;28;89631;-33
2022/05/05 04:45:50;;;;;;;28.30;19.75;;;5.80;99.90;;;;;;4940290;28;90624;-34
2022/05/05 04:48:17;;;;;;;28.88;19.20;;;6.00;99.90;;;;;;4940750;28;89131;-39
2022/05/05 04:50:42;;;;;;;25.50;20.25;;;6.10;99.90;;;;;;4940465;28;90035;-33
2022/05/05 04:53:08;;;;;;;26.92;20.10;;;6.30;99.90;;;;;;4939945;28;90553;-34
2022/05/05 04:55:33;;;;;;;21.48;18.70;;;6.40;99.90;;;;;;4940440;28;89218;-34
2022/05/05 04:57:59;;;;;;;27.83;20.48;;;6.50;99.90;;;;;;4939793;28;89258;-36
2022/05/05 05:00:25;;;;;;;37.42;21.13;;;6.80;99.90;;;;;;4939903;28;90481;-35
2022/05/05 05:02:50;;;;;;;20.70;18.35;;;7.00;99.90;;;;;;4939391;28;91020;-36
2022/05/05 05:05:16;;;;;;;26.63;19.75;;;7.00;99.90;;;;;;4939687;28;89337;-35
2022/05/05 05:07:41;;;;;;;23.13;17.83;;;7.10;99.90;;;;;;4939528;28;87885;-34
2022/05/05 05:10:08;;;;;;;20.58;18.48;;;7.10;99.90;;;;;;4939551;28;90499;-34
2022/05/05 05:12:34;;;;;;;33.05;18.65;;;7.20;99.90;;;;;;4940531;28;90305;-35
2022/05/05 05:14:59;;;;;;;28.60;19.10;;;7.20;99.90;;;;;;4939923;28;89539;-34
2022/05/05 05:17:25;;;;;;;21.50;19.15;;;7.20;99.90;;;;;;4938861;28;89764;-33
2022/05/05 05:19:51;;;;;;;27.42;19.23;;;7.20;99.90;;;;;;4939617;28;91931;-34
2022/05/05 05:22:17;;;;;;;26.20;17.80;;;7.20;99.90;;;;;;4938791;28;90537;-35
2022/05/05 05:24:42;;;;;;;28.50;19.65;;;7.10;99.90;;;;;;4939873;28;90598;-33
2022/05/05 05:27:08;;;;;;;26.70;18.58;;;7.10;99.90;;;;;;4939656;28;89309;-34
2022/05/05 05:29:34;;;;;;;28.55;19.33;;;7.10;99.90;;;;;;4940086;28;90212;-38
2022/05/05 05:31:59;;;;;;;24.83;18.00;;;7.10;99.90;;;;;;4939332;28;90037;-35
2022/05/05 05:34:25;;;;;;;25.25;18.35;;;7.20;99.90;;;;;;4939897;28;90119;-37
2022/05/05 05:36:51;;;;;;;22.70;17.23;;;7.20;99.90;;;;;;4939704;28;89391;-33
2022/05/05 05:39:17;;;;;;;26.85;18.55;;;7.20;99.90;;;;;;4938680;28;90734;-35
2022/05/05 05:41:44;;;;;;;24.70;19.45;;;7.30;99.90;;;;;;4939120;28;88640;-38
2022/05/05 05:44:09;;;;;;;21.98;19.77;;;7.40;99.90;;;;;;4939859;28;89976;-34
2022/05/05 05:46:35;;;;;;;24.60;18.63;;;7.50;99.90;;;;;;4938983;28;89231;-34
2022/05/05 05:49:00;;;;;;;23.48;18.60;;;7.60;99.90;;;;;;4939892;28;92554;-35
2022/05/05 05:51:26;;;;;;;28.35;20.70;;;7.60;99.90;;;;;;4938622;28;89605;-36
2022/05/05 05:53:52;;;;;;;29.00;17.65;;;7.70;99.90;;;;;;4939240;28;89890;-35
2022/05/05 05:56:18;;;;;;;25.75;19.20;;;7.80;99.90;;;;;;4939742;28;88262;-33
2022/05/05 05:58:44;;;;;;;21.13;18.00;;;7.90;99.90;;;;;;4939075;28;89937;-36
2022/05/05 06:01:09;;;;;;;22.38;19.17;;;8.10;99.90;;;;;;4939435;28;89783;-33
2022/05/05 06:03:54;;;;;;;25.95;19.00;;;8.20;99.90;;;;;;4938701;28;89882;-34
2022/05/05 06:06:21;;;;;;;29.90;19.58;;;8.30;99.90;;;;;;4949495;28;89346;-35
2022/05/05 06:08:46;;;;;;;31.27;18.95;;;8.50;99.90;;;;;;4958174;28;90373;-35
2022/05/05 06:11:12;;;;;;;25.92;19.33;;;8.50;99.90;;;;;;4956848;28;89986;-35
2022/05/05 06:13:38;;;;;;;24.73;18.67;;;8.60;99.90;;;;;;4959118;28;89483;-35
2022/05/05 06:16:06;;;;;;;25.60;18.33;;;8.70;99.90;;;;;;4958163;28;89176;-37
2022/05/05 06:18:32;;;;;;;22.45;18.30;;;8.90;99.90;;;;;;4958620;28;89324;-37
2022/05/05 06:20:58;;;;;;;21.70;18.05;;;9.10;99.90;;;;;;4958519;28;89758;-34
2022/05/05 06:23:24;;;;;;;21.42;17.40;;;9.20;99.90;;;;;;4958615;28;89475;-37
2022/05/05 06:25:49;;;;;;;22.92;17.40;;;9.40;99.90;;;;;;4958590;28;89787;-37
2022/05/05 06:28:15;;;;;;;25.77;17.52;;;9.50;99.90;;;;;;4959741;28;90237;-35
2022/05/05 06:30:41;;;;;;;22.15;16.95;;;9.70;99.90;;;;;;4961510;28;88667;-36
2022/05/05 06:33:06;;;;;;;23.13;16.38;;;9.80;99.90;;;;;;4962422;28;89508;-32
2022/05/05 06:35:32;;;;;;;20.63;16.00;;;10.00;99.90;;;;;;4961480;28;88464;-34
2022/05/05 06:37:58;;;;;;;19.48;15.77;;;10.30;99.90;;;;;;4961809;28;89138;-35
2022/05/05 06:40:24;;;;;;;23.20;16.55;;;10.60;99.90;;;;;;4961056;28;90220;-37
2022/05/05 06:42:50;;;;;;;23.95;16.58;;;11.10;99.90;;;;;;4959034;28;89755;-36
2022/05/05 06:45:16;;;;;;;23.23;15.65;;;11.50;99.90;;;;;;4962345;28;89444;-35
2022/05/05 06:47:41;;;;;;;18.00;15.15;;;11.80;99.90;;;;;;4961458;28;90304;-31
2022/05/05 06:50:07;;;;;;;26.40;15.75;;;12.30;99.90;;;;;;4959864;28;89946;-35
2022/05/05 06:52:33;;;;;;;24.92;14.93;;;12.70;99.90;;;;;;4959346;28;89347;-33
2022/05/05 06:55:00;;;;;;;16.95;13.65;;;13.10;99.90;;;;;;4959533;28;90163;-34
2022/05/05 06:57:26;;;;;;;22.92;15.30;;;13.00;99.90;;;;;;4959584;28;90244;-36
2022/05/05 06:59:52;;;;;;;21.88;13.80;;;12.90;99.90;;;;;;4955226;28;90600;-35
2022/05/05 07:02:18;;;;;;;14.07;12.20;;;13.10;99.90;;;;;;4955511;28;90200;-36
2022/05/05 07:07:28;;;;;;;17.98;11.52;;;13.50;99.90;;;;;;4958858;28;90325;-36
2022/05/05 07:12:38;;;;;;;19.25;10.18;;;14.20;99.90;;;;;;4958978;28;89464;-33
2022/05/05 07:15:04;;;;;;;10.35;9.05;;;14.70;99.90;;;;;;4959348;28;89570;-39
2022/05/05 07:17:30;;;;;;;12.27;9.40;;;15.10;99.90;;;;;;4959621;28;91034;-35
2022/05/05 07:19:55;;;;;;;11.38;7.15;;;15.50;99.90;;;;;;4956992;28;89400;-37
2022/05/05 07:22:21;;;;;;;13.73;6.40;;;15.70;99.90;;;;;;4960119;28;89600;-37
2022/05/05 07:24:47;;;;;;;36.33;9.05;;;16.10;99.90;;;;;;4959125;28;89536;-40
2022/05/05 07:27:13;;;;;;;18.95;7.80;;;15.80;99.90;;;;;;4959703;28;90230;-34
2022/05/05 07:29:40;;;;;;;9.32;7.68;;;15.30;97.40;;;;;;4959163;28;89453;-38
2022/05/05 07:32:06;;;;;;;11.63;6.78;;;15.10;99.90;;;;;;4959267;28;89579;-35
2022/05/05 07:34:34;;;;;;;16.83;7.03;;;15.00;95.40;;;;;;4960417;28;89355;-36
2022/05/05 07:37:00;;;;;;;7.78;6.18;;;15.00;99.90;;;;;;4959815;28;90098;-37
2022/05/05 07:39:25;;;;;;;12.85;6.85;;;15.00;99.90;;;;;;4957905;28;89747;-33
2022/05/05 07:41:51;;;;;;;13.77;5.97;;;14.90;99.90;;;;;;4959480;28;89712;-34
2022/05/05 07:44:17;;;;;;;12.15;6.60;;;14.80;99.90;;;;;;4959350;28;88332;-36
2022/05/05 07:46:42;;;;;;;7.57;5.68;;;14.80;99.90;;;;;;4959348;28;90218;-37
2022/05/05 07:49:08;;;;;;;7.63;6.35;;;14.70;99.90;;;;;;4958449;28;90751;-36
2022/05/05 07:51:34;;;;;;;8.98;5.93;;;14.70;99.90;;;;;;4958826;28;88486;-35
2022/05/05 07:56:45;;;;;;;11.13;6.63;;;14.70;99.90;;;;;;4958502;28;90112;-37
2022/05/05 07:59:11;;;;;;;9.50;6.63;;;14.70;99.90;;;;;;4959554;28;88838;-37
2022/05/05 08:01:37;;;;;;;12.73;5.95;;;14.80;99.90;;;;;;4959239;28;89838;-32
2022/05/05 08:04:03;;;;;;;77.13;16.48;;;14.90;99.90;;;;;;4959072;28;88400;-34
2022/05/05 08:06:28;;;;;;;34.92;11.25;;;14.70;99.90;;;;;;4958700;28;90934;-35
2022/05/05 08:08:54;;;;;;;7.82;5.80;;;14.80;99.90;;;;;;4958196;28;88598;-37
2022/05/05 08:11:20;;;;;;;8.05;6.45;;;14.80;99.90;;;;;;4959647;28;90001;-37
2022/05/05 08:13:45;;;;;;;8.38;6.13;;;14.80;99.90;;;;;;4958869;28;89313;-37
2022/05/05 08:16:11;;;;;;;5.88;5.00;;;15.00;99.90;;;;;;4957265;28;89792;-37
2022/05/05 08:18:38;;;;;;;9.38;6.18;;;14.80;99.90;;;;;;4941365;28;88832;-36
2022/05/05 08:21:09;;;;;;;13.15;5.35;;;14.70;99.90;;;;;;4938698;28;90439;-36
2022/05/05 08:23:34;;;;;;;11.40;6.18;;;14.60;99.90;;;;;;4939313;28;88811;-37
2022/05/05 08:28:44;;;;;;;9.27;6.65;;;14.90;99.90;;;;;;4938519;28;89686;-34
2022/05/05 08:31:10;;;;;;;9.10;6.55;;;14.90;99.90;;;;;;4938764;28;89554;-34
2022/05/05 08:33:38;;;;;;;9.10;5.78;;;14.60;99.90;;;;;;4939427;28;88718;-36
2022/05/05 08:36:05;;;;;;;8.05;6.05;;;14.50;99.90;;;;;;4938636;28;90142;-37
2022/05/05 08:38:32;;;;;;;8.77;6.03;;;14.60;99.90;;;;;;4937779;28;91388;-35
2022/05/05 08:40:58;;;;;;;14.50;6.43;;;14.60;99.90;;;;;;4938187;28;90620;-37
2022/05/05 08:43:24;;;;;;;11.57;6.63;;;14.60;99.90;;;;;;4938638;28;90154;-35
2022/05/05 08:45:50;;;;;;;9.10;6.45;;;14.70;99.90;;;;;;4937830;28;90734;-34
2022/05/05 08:48:17;;;;;;;9.65;6.72;;;14.60;99.90;;;;;;4938777;28;90113;-37
2022/05/05 08:50:46;;;;;;;11.90;7.28;;;14.70;99.90;;;;;;4938721;28;89693;-33
2022/05/05 08:53:16;;;;;;;11.70;7.43;;;14.70;99.90;;;;;;4938451;28;89168;-35
2022/05/05 08:55:45;;;;;;;7.85;7.03;;;14.60;99.90;;;;;;4938309;28;88983;-37
2022/05/05 08:58:12;;;;;;;8.23;7.10;;;14.70;99.90;;;;;;4938909;28;89097;-33
2022/05/05 09:00:38;;;;;;;10.18;6.80;;;14.70;99.90;;;;;;4938379;28;89591;-35
2022/05/05 09:03:04;;;;;;;7.53;6.35;;;14.90;99.90;;;;;;4937661;28;90908;-34
2022/05/05 09:05:42;;;;;;;9.82;7.05;;;15.00;99.90;;;;;;4938358;28;91210;-34
2022/05/05 09:08:10;;;;;;;10.37;7.93;;;15.30;99.90;;;;;;4937815;28;90017;-36
2022/05/05 09:10:43;;;;;;;14.00;7.43;;;15.00;99.90;;;;;;4937938;28;89543;-37
2022/05/05 09:13:09;;;;;;;9.65;7.25;;;14.80;99.80;;;;;;4938997;28;89360;-34
2022/05/05 09:15:37;;;;;;;10.50;7.35;;;15.00;99.90;;;;;;4937666;28;88987;-34
2022/05/05 09:18:26;;;;;;;11.95;7.88;;;15.10;99.90;;;;;;4937897;28;89565;-38
2022/05/05 09:20:52;;;;;;;8.93;7.65;;;15.30;99.90;;;;;;4937936;28;88958;-35
2022/05/05 09:23:34;;;;;;;10.02;7.00;;;15.20;99.90;;;;;;4943581;28;88274;-36
2022/05/05 09:26:01;;;;;;;7.32;6.70;;;15.40;99.90;;;;;;4957328;28;90676;-35
2022/05/05 09:28:30;;;;;;;9.68;7.78;;;15.50;99.90;;;;;;4957525;28;90506;-35
2022/05/05 09:31:07;;;;;;;7.40;5.88;;;15.60;99.90;;;;;;4957797;28;89785;-36
2022/05/05 09:33:33;;;;;;;13.10;7.28;;;15.70;99.90;;;;;;4958237;28;88418;-34
2022/05/05 09:36:00;;;;;;;8.13;6.03;;;15.60;99.90;;;;;;4957012;28;90205;-34
2022/05/05 09:38:48;;;;;;;7.80;7.03;;;15.60;99.90;;;;;;4957773;28;89861;-37
2022/05/05 09:41:14;;;;;;;8.68;7.18;;;15.60;99.90;;;;;;4957653;28;89542;-35
2022/05/05 09:43:46;;;;;;;8.77;7.72;;;15.80;99.90;;;;;;4956811;28;88776;-36
2022/05/05 09:46:26;;;;;;;10.80;7.63;;;16.00;99.90;;;;;;4957614;28;90221;-33
2022/05/05 09:48:53;;;;;;;11.68;7.35;;;16.00;98.40;;;;;;4957458;28;89585;-36
2022/05/05 09:51:19;;;;;;;13.57;7.13;;;15.90;96.50;;;;;;4957288;28;90086;-35
2022/05/05 09:59:51;;;;;;;9.85;8.45;;;16.40;94.10;;;;;;4956905;28;89840;-33
2022/05/05 10:05:17;;;;;;;9.75;7.88;;;16.60;91.60;;;;;;4957404;28;87631;-34
2022/05/05 10:07:44;;;;;;;12.88;8.50;;;16.70;92.50;;;;;;4957032;28;90286;-38
2022/05/05 10:10:13;;;;;;;12.37;7.53;;;16.90;93.00;;;;;;4957213;28;89731;-33
2022/05/05 10:12:39;;;;;;;8.10;6.22;;;17.00;97.70;;;;;;4956761;28;91495;-33
2022/05/05 10:15:06;;;;;;;9.15;7.47;;;16.50;88.20;;;;;;4957008;28;89368;-37
2022/05/05 10:17:35;;;;;;;7.30;6.60;;;16.80;94.90;;;;;;4957367;28;90142;-35
2022/05/05 10:20:02;;;;;;;9.07;6.93;;;16.90;95.10;;;;;;4957089;28;90852;-34
2022/05/05 10:22:41;;;;;;;11.25;7.70;;;17.10;91.80;;;;;;4957367;28;90150;-34
2022/05/05 10:25:27;;;;;;;13.50;7.38;;;17.10;80.50;;;;;;4956485;28;89235;-36
2022/05/05 10:27:55;;;;;;;10.43;7.20;;;17.00;92.50;;;;;;4955961;28;89622;-35
2022/05/05 10:30:34;;;;;;;9.33;7.03;;;16.90;91.50;;;;;;4956804;28;90610;-38
2022/05/05 10:33:00;;;;;;;13.57;8.23;;;16.80;79.70;;;;;;4957341;28;90532;-35
2022/05/05 10:35:26;;;;;;;8.05;7.13;;;16.80;83.30;;;;;;4957150;28;87614;-33
2022/05/05 10:37:52;;;;;;;8.68;6.57;;;16.80;86.50;;;;;;4956395;28;90301;-32
2022/05/05 10:40:18;;;;;;;8.45;7.07;;;17.10;94.90;;;;;;4956970;28;90021;-37
2022/05/05 10:42:51;;;;;;;8.05;7.32;;;17.50;90.90;;;;;;4956168;28;89920;-34
2022/05/05 10:45:30;;;;;;;11.43;7.68;;;17.10;79.00;;;;;;4957180;28;90369;-34
2022/05/05 10:47:58;;;;;;;8.75;7.72;;;17.50;81.60;;;;;;4956984;28;90804;-34
2022/05/05 10:50:42;;;;;;;9.00;7.03;;;17.50;78.30;;;;;;4957160;28;89755;-33
2022/05/05 10:53:24;;;;;;;9.45;7.18;;;17.70;81.90;;;;;;4956182;28;89501;-37
2022/05/05 10:55:50;;;;;;;14.13;8.15;;;17.70;74.40;;;;;;4956995;28;89373;-36
2022/05/05 10:58:53;;;;;;;11.07;8.05;;;17.50;83.00;;;;;;4955992;28;89985;-36
2022/05/05 11:01:19;;;;;;;8.45;7.43;;;17.30;82.40;;;;;;4956421;28;89465;-36
2022/05/05 11:04:03;;;;;;;8.57;7.72;;;17.50;78.80;;;;;;4956247;28;89523;-37
2022/05/05 11:06:30;;;;;;;9.30;6.65;;;17.80;71.50;;;;;;4957034;28;88433;-34
2022/05/05 11:08:56;;;;;;;9.68;7.55;;;17.50;67.40;;;;;;4955042;28;90315;-33
2022/05/05 11:11:40;;;;;;;9.20;7.93;;;17.70;74.50;;;;;;4955236;28;90934;-35
2022/05/05 11:21:32;;;;;;;10.80;7.10;;;17.90;75.30;;;;;;4955854;28;90592;-37
2022/05/05 11:23:08;;;;;;;8.50;6.18;;;17.80;71.40;;;;;;4959447;28;89002;-37
2022/05/05 11:25:33;;;;;;;7.20;6.38;;;18.00;81.00;;;;;;4959280;28;89370;-37
2022/05/05 11:27:59;;;;;;;7.55;6.53;;;18.20;72.50;;;;;;4959656;28;88591;-34
2022/05/05 11:30:25;;;;;;;7.57;6.63;;;18.50;80.20;;;;;;4959772;28;91288;-33
2022/05/05 11:32:51;;;;;;;8.45;6.57;;;18.60;72.60;;;;;;4958957;28;89840;-36
2022/05/05 11:35:21;;;;;;;10.77;6.57;;;18.70;74.00;;;;;;4959992;28;90572;-34
2022/05/05 11:37:47;;;;;;;8.40;6.47;;;18.70;72.40;;;;;;4959168;28;89459;-37
2022/05/05 11:40:13;;;;;;;12.43;7.28;;;18.30;67.50;;;;;;4959110;28;90117;-33
2022/05/05 11:45:30;;;;;;;17.02;7.50;;;18.40;65.90;;;;;;4959045;28;89672;-34
2022/05/05 11:47:56;;;;;;;14.48;7.38;;;18.50;67.90;;;;;;4959289;28;89365;-37
2022/05/05 11:50:22;;;;;;;8.43;6.15;;;18.80;66.60;;;;;;4959365;28;90270;-34
2022/05/05 11:52:48;;;;;;;6.63;5.50;;;19.00;68.40;;;;;;4958416;28;89314;-38
2022/05/05 11:55:17;;;;;;;9.55;6.13;;;19.30;69.10;;;;;;4959664;28;90568;-35
2022/05/05 11:57:45;;;;;;;9.13;6.63;;;19.30;68.90;;;;;;4959368;28;89582;-36
2022/05/05 12:02:57;;;;;;;7.43;6.50;;;18.60;73.30;;;;;;4957869;28;90662;-34
2022/05/05 12:05:24;;;;;;;9.63;5.82;;;18.80;76.00;;;;;;4958818;28;90635;-37
2022/05/05 12:07:50;;;;;;;7.45;6.10;;;18.70;71.60;;;;;;4959049;28;89126;-37
2022/05/05 12:10:18;;;;;;;6.25;5.65;;;18.30;70.30;;;;;;4959126;28;89089;-34
2022/05/05 12:12:45;;;;;;;10.13;6.72;;;18.30;70.90;;;;;;4958921;28;90231;-38
2022/05/05 12:15:11;;;;;;;12.00;6.20;;;18.20;72.10;;;;;;4959397;28;89951;-34
2022/05/05 12:17:50;;;;;;;5.90;5.28;;;18.30;75.30;;;;;;4958053;28;89667;-36
2022/05/05 12:20:19;;;;;;;7.35;5.65;;;18.20;73.40;;;;;;4958907;28;90358;-35
2022/05/05 12:22:53;;;;;;;9.10;5.53;;;18.50;74.60;;;;;;4958210;28;90097;-33
2022/05/05 12:25:20;;;;;;;7.20;5.25;;;18.60;65.70;;;;;;4958977;28;89441;-35
2022/05/05 12:27:45;;;;;;;5.95;5.30;;;18.50;69.60;;;;;;4957316;28;88963;-37
2022/05/05 12:30:12;;;;;;;11.15;6.38;;;18.40;63.80;;;;;;4958590;28;90295;-36
2022/05/05 12:32:51;;;;;;;5.85;5.35;;;18.30;68.60;;;;;;4959133;28;89676;-33
2022/05/05 12:35:27;;;;;;;6.65;5.00;;;18.40;61.20;;;;;;4959139;28;88996;-36
2022/05/05 12:38:01;;;;;;;9.30;4.95;;;18.10;62.60;;;;;;4957317;28;89360;-36
2022/05/05 12:40:27;;;;;;;9.60;6.22;;;18.40;70.80;;;;;;4988238;22;90725;-34
2022/05/05 12:43:14;;;;;;;126.75;20.23;;;18.20;63.40;;;;;;4957844;28;89877;-34
2022/05/05 12:45:41;;;;;;;7.38;4.30;;;17.90;64.50;;;;;;4957801;28;91364;-35
2022/05/05 12:48:09;;;;;;;7.20;5.00;;;18.10;68.60;;;;;;4957762;28;88378;-36
2022/05/05 12:50:35;;;;;;;5.47;4.95;;;18.10;66.80;;;;;;4958278;28;90962;-34
2022/05/05 13:01:33;;;;;;;7.72;4.93;;;18.60;62.70;;;;;;4958869;28;91212;-38
2022/05/05 13:04:19;;;;;;;6.20;4.97;;;18.80;63.80;;;;;;4958614;28;91539;-37
2022/05/05 13:06:53;;;;;;;7.63;5.28;;;18.50;61.90;;;;;;4958437;28;89422;-35
2022/05/05 13:09:20;;;;;;;6.03;4.38;;;18.60;62.30;;;;;;4958791;28;88746;-36
2022/05/05 13:11:53;;;;;;;6.93;3.92;;;18.70;63.10;;;;;;4958471;28;90307;-34
2022/05/05 13:14:20;;;;;;;4.40;3.78;;;19.00;63.90;;;;;;4958052;28;91120;-36
2022/05/05 13:16:47;;;;;;;6.67;4.47;;;19.00;62.20;;;;;;4958061;28;89723;-33
2022/05/05 13:19:13;;;;;;;4.43;4.03;;;19.20;61.00;;;;;;4958257;28;88274;-35
2022/05/05 13:21:41;;;;;;;4.32;3.92;;;19.00;61.60;;;;;;4957340;28;92947;-34
2022/05/05 13:24:09;;;;;;;4.97;4.10;;;18.90;64.10;;;;;;4957257;28;89717;-38
2022/05/05 13:26:41;;;;;;;6.13;4.53;;;19.10;64.10;;;;;;4957967;28;89478;-37
2022/05/05 13:29:07;;;;;;;5.45;3.55;;;18.90;64.20;;;;;;4957820;28;88770;-38
2022/05/05 13:31:32;;;;;;;6.65;5.10;;;18.90;66.20;;;;;;4958982;28;90157;-36
2022/05/05 13:33:58;;;;;;;4.78;4.28;;;18.90;64.00;;;;;;4957611;28;89811;-34
2022/05/05 13:36:23;;;;;;;6.63;5.43;;;18.90;66.30;;;;;;4958134;28;89541;-36
2022/05/05 13:38:49;;;;;;;7.47;4.93;;;18.60;66.10;;;;;;4956108;28;88925;-37